Time;durP1;ratioP1;P1;durP2;ratioP2;P2;SDS_P1;SDS_P2;PMS_P1;PMS_P2;Temp;Humidity;BMP_temperature;BMP_pressure;BME280_temperature;BME280_humidity;BME280_pressure;Samples;Min_cycle;Max_cycle;Signal;HPM_P1;HPM_P2
2022/09/04 00:02:07;;;;;;;6.17;3.50;;;13.50;64.60;;;;;;4978022;28;46643;-67
2022/09/04 00:04:57;;;;;;;8.37;4.00;;;13.60;63.50;;;;;;4979931;28;46354;-66
2022/09/04 00:07:56;;;;;;;7.20;4.10;;;13.70;64.70;;;;;;4980998;28;46554;-65
2022/09/04 00:10:28;;;;;;;7.43;4.00;;;13.70;64.60;;;;;;4981053;28;46505;-65
2022/09/04 00:13:21;;;;;;;7.57;3.40;;;13.70;63.80;;;;;;4980252;28;46625;-68
2022/09/04 00:15:56;;;;;;;7.23;3.80;;;13.60;64.70;;;;;;4980014;28;46492;-65
2022/09/04 00:18:48;;;;;;;5.13;3.13;;;13.60;64.70;;;;;;4978894;28;46095;-69
2022/09/04 00:21:46;;;;;;;5.50;3.67;;;13.50;64.80;;;;;;4978512;28;46387;-66
2022/09/04 00:24:17;;;;;;;8.20;3.40;;;13.50;64.10;;;;;;4978923;28;46504;-67
2022/09/04 00:27:13;;;;;;;8.50;3.90;;;13.40;65.20;;;;;;4981374;28;46336;-66
2022/09/04 00:29:56;;;;;;;6.00;3.97;;;13.40;65.20;;;;;;4982812;28;46455;-66
2022/09/04 00:32:39;;;;;;;6.50;3.67;;;13.50;64.30;;;;;;4980015;28;47010;-68
2022/09/04 00:35:21;;;;;;;9.40;3.77;;;13.40;65.10;;;;;;4982520;28;46533;-67
2022/09/04 00:38:02;;;;;;;6.00;3.50;;;13.50;65.20;;;;;;4981437;28;46371;-67
2022/09/04 00:40:40;;;;;;;6.03;3.53;;;13.50;65.10;;;;;;4981986;28;46407;-67
2022/09/04 00:43:17;;;;;;;4.07;3.03;;;13.50;64.10;;;;;;4982092;28;46229;-66
2022/09/04 00:46:03;;;;;;;4.93;2.77;;;13.50;65.00;;;;;;4983043;28;46439;-67
2022/09/04 00:48:33;;;;;;;9.80;2.93;;;13.50;64.90;;;;;;4980667;28;46499;-67
2022/09/04 00:51:19;;;;;;;6.90;3.40;;;13.60;64.60;;;;;;4983572;28;46114;-68
2022/09/04 00:53:54;;;;;;;4.77;3.03;;;13.60;63.30;;;;;;4981460;28;46128;-68
2022/09/04 00:56:54;;;;;;;6.20;3.03;;;13.70;64.30;;;;;;4982154;28;46379;-66
2022/09/04 00:59:50;;;;;;;5.30;2.80;;;13.70;64.10;;;;;;4981264;28;46483;-67
2022/09/04 01:02:31;;;;;;;5.80;2.97;;;13.60;63.00;;;;;;4979217;28;45830;-68
2022/09/04 01:05:32;;;;;;;6.47;3.10;;;13.70;64.00;;;;;;4983456;28;46605;-67
2022/09/04 01:08:25;;;;;;;6.10;3.57;;;13.60;64.00;;;;;;4980073;28;46344;-67
2022/09/04 01:11:18;;;;;;;7.50;2.70;;;13.60;63.90;;;;;;4981033;28;46316;-67
2022/09/04 01:13:43;;;;;;;10.40;3.07;;;13.50;63.00;;;;;;4980751;28;45854;-67
2022/09/04 01:16:18;;;;;;;4.23;2.57;;;13.50;64.10;;;;;;4981182;28;46397;-67
2022/09/04 01:18:58;;;;;;;5.07;3.30;;;13.50;65.20;;;;;;4981929;28;46522;-67
2022/09/04 01:21:40;;;;;;;4.87;2.77;;;13.50;64.00;;;;;;4981665;28;46329;-66
2022/09/04 01:24:33;;;;;;;5.13;2.97;;;13.50;63.00;;;;;;4981060;28;46393;-67
2022/09/04 01:27:09;;;;;;;9.43;2.73;;;13.60;64.10;;;;;;4981457;28;47082;-68
2022/09/04 01:29:59;;;;;;;7.70;3.37;;;13.50;64.00;;;;;;4980630;28;46389;-67
2022/09/04 01:32:58;;;;;;;7.30;3.23;;;13.50;63.40;;;;;;4979418;28;46348;-67
2022/09/04 01:35:55;;;;;;;4.63;3.00;;;13.50;64.20;;;;;;4979862;28;46429;-66
2022/09/04 01:38:52;;;;;;;7.30;2.87;;;13.40;64.10;;;;;;4980752;28;46455;-68
2022/09/04 01:41:45;;;;;;;5.20;3.17;;;13.40;64.30;;;;;;4980235;28;46319;-65
2022/09/04 01:44:11;;;;;;;9.43;4.83;;;13.40;63.40;;;;;;4979516;28;46446;-68
2022/09/04 01:46:40;;;;;;;4.67;3.30;;;13.40;64.40;;;;;;4981616;28;46411;-68
2022/09/04 01:49:33;;;;;;;7.43;2.90;;;13.40;64.60;;;;;;4978993;28;47207;-65
2022/09/04 01:52:08;;;;;;;5.73;3.30;;;;;;;;;;4980003;28;46333;-67
2022/09/04 01:54:39;;;;;;;6.27;3.37;;;13.40;63.60;;;;;;4980594;28;46359;-67
2022/09/04 01:57:23;;;;;;;5.47;3.40;;;13.40;64.70;;;;;;4981524;28;46355;-67
2022/09/04 01:59:54;;;;;;;8.37;3.07;;;13.30;64.80;;;;;;4981122;28;46124;-67
2022/09/04 02:02:26;;;;;;;5.77;3.23;;;13.20;64.10;;;;;;4979251;28;46579;-67
2022/09/04 02:04:57;;;;;;;5.63;3.00;;;13.20;65.10;;;;;;4981454;28;46366;-68
2022/09/04 02:07:32;;;;;;;5.10;3.10;;;13.20;65.20;;;;;;4972797;28;46431;-68
2022/09/04 02:10:21;;;;;;;4.80;2.97;;;13.10;65.20;;;;;;4979479;28;46448;-67
2022/09/04 02:13:28;;;;;;;15.10;3.50;;;13.00;64.40;;;;;;4979508;28;46159;-67
2022/09/04 02:16:30;;;;;;;7.67;3.20;;;13.00;65.50;;;;;;4967165;28;45899;-66
2022/09/04 02:19:22;;;;;;;8.27;3.83;;;13.00;65.40;;;;;;4980939;28;46453;-66
2022/09/04 02:22:00;;;;;;;7.03;3.33;;;12.90;65.20;;;;;;4980211;28;46396;-67
2022/09/04 02:24:28;;;;;;;5.07;3.03;;;12.90;64.20;;;;;;4980711;28;46395;-68
2022/09/04 02:26:57;;;;;;;4.93;3.67;;;12.90;65.20;;;;;;4979939;28;45835;-67
2022/09/04 02:29:52;;;;;;;10.43;3.10;;;12.90;65.20;;;;;;4980497;28;46344;-67
2022/09/04 02:32:34;;;;;;;4.50;3.20;;;12.90;64.10;;;;;;4979798;28;46732;-66
2022/09/04 02:35:20;;;;;;;10.77;3.50;;;12.90;65.10;;;;;;4979142;28;45741;-67
2022/09/04 02:38:00;;;;;;;5.70;3.40;;;12.90;65.00;;;;;;4980363;28;46670;-68
2022/09/04 02:40:53;;;;;;;8.23;3.20;;;12.90;65.00;;;;;;4990604;28;46673;-66
2022/09/04 02:43:51;;;;;;;5.10;2.73;;;12.90;64.10;;;;;;4979072;28;46606;-67
2022/09/04 02:46:33;;;;;;;9.37;3.60;;;12.90;65.00;;;;;;4977014;28;46371;-67
2022/09/04 02:49:31;;;;;;;8.43;3.63;;;12.90;64.80;;;;;;4979297;28;46592;-68
2022/09/04 02:52:18;;;;;;;6.03;2.83;;;13.00;63.50;;;;;;4994503;28;46385;-68
2022/09/04 02:55:18;;;;;;;5.87;3.20;;;13.00;64.60;;;;;;4979828;28;46231;-69
2022/09/04 02:57:57;;;;;;;4.87;3.07;;;13.10;64.50;;;;;;4980282;28;46384;-66
2022/09/04 03:00:53;;;;;;;5.60;3.37;;;13.10;64.30;;;;;;4979447;28;46551;-68
2022/09/04 03:03:54;;;;;;;5.53;2.80;;;13.00;63.30;;;;;;4980097;28;46592;-67
2022/09/04 03:06:31;;;;;;;6.13;3.57;;;13.00;64.50;;;;;;4992519;28;48411;-67
2022/09/04 03:09:03;;;;;;;6.37;3.60;;;13.00;64.30;;;;;;4978021;28;46308;-67
2022/09/04 03:11:35;;;;;;;9.40;3.53;;;13.00;64.40;;;;;;4980835;28;46329;-67
2022/09/04 03:14:11;;;;;;;5.10;3.13;;;13.00;63.50;;;;;;4980325;28;46499;-67
2022/09/04 03:16:43;;;;;;;7.97;3.27;;;12.90;64.50;;;;;;4980551;28;46162;-66
2022/09/04 03:19:24;;;;;;;7.00;3.10;;;13.00;64.70;;;;;;4979033;28;46464;-68
2022/09/04 03:21:56;;;;;;;5.67;3.37;;;12.90;64.60;;;;;;4979361;28;45971;-66
2022/09/04 03:24:55;;;;;;;10.43;3.70;;;12.90;63.70;;;;;;4980399;28;46418;-66
2022/09/04 03:27:22;;;;;;;5.47;3.00;;;12.90;64.80;;;;;;4978888;28;47015;-67
2022/09/04 03:30:02;;;;;;;5.90;3.73;;;12.90;64.70;;;;;;4980343;28;46396;-67
2022/09/04 03:32:44;;;;;;;5.10;3.30;;;12.90;63.90;;;;;;4979180;28;46414;-67
2022/09/04 03:35:17;;;;;;;4.90;3.27;;;12.90;64.80;;;;;;4992014;28;46105;-67
2022/09/04 03:37:52;;;;;;;6.53;3.47;;;12.80;64.80;;;;;;4979773;28;46558;-68
2022/09/04 03:40:40;;;;;;;5.53;3.90;;;12.80;65.10;;;;;;4983641;28;45831;-68
2022/09/04 03:43:14;;;;;;;9.43;2.90;;;12.70;64.30;;;;;;4983235;28;46614;-66
2022/09/04 03:45:55;;;;;;;11.33;3.13;;;12.70;65.30;;;;;;4983495;28;46426;-66
2022/09/04 03:48:27;;;;;;;6.10;2.93;;;12.70;65.40;;;;;;4981057;28;47286;-67
2022/09/04 03:50:56;;;;;;;4.90;2.47;;;12.60;65.30;;;;;;4983667;28;46422;-68
2022/09/04 03:53:44;;;;;;;5.83;2.60;;;12.50;64.60;;;;;;4982749;28;46466;-67
2022/09/04 03:56:17;;;;;;;3.57;2.40;;;12.50;65.60;;;;;;4983486;28;46551;-67
2022/09/04 03:59:03;;;;;;;9.10;3.07;;;12.40;65.50;;;;;;4981814;28;46464;-67
2022/09/04 04:01:38;;;;;;;4.80;3.37;;;12.40;65.40;;;;;;4983647;28;46489;-67
2022/09/04 04:04:34;;;;;;;12.70;3.43;;;12.40;64.50;;;;;;4982788;28;46508;-66
2022/09/04 04:07:46;;;;;;;5.17;3.00;;;12.30;65.40;;;;;;4981198;28;46861;-67
2022/09/04 04:10:24;;;;;;;6.10;2.77;;;12.30;65.50;;;;;;4982277;28;46875;-67
2022/09/04 04:13:09;;;;;;;6.57;2.93;;;12.30;64.40;;;;;;4983270;28;46324;-68
2022/09/04 04:15:59;;;;;;;4.30;3.17;;;12.30;65.40;;;;;;4980969;28;46535;-67
2022/09/04 04:18:44;;;;;;;10.40;2.90;;;12.30;65.30;;;;;;4982900;28;46473;-68
2022/09/04 04:21:54;;;;;;;8.67;3.07;;;12.30;65.40;;;;;;4986092;28;47034;-68
2022/09/04 04:24:39;;;;;;;3.93;2.77;;;12.30;64.30;;;;;;4982930;28;46344;-68
2022/09/04 04:27:47;;;;;;;6.90;3.10;;;12.20;65.20;;;;;;4982498;28;46277;-67
2022/09/04 04:30:16;;;;;;;5.00;2.70;;;12.20;65.10;;;;;;4983424;28;46419;-67
2022/09/04 04:33:07;;;;;;;6.37;2.83;;;12.20;64.30;;;;;;4983187;28;47149;-67
2022/09/04 04:36:01;;;;;;;4.40;2.63;;;12.10;65.20;;;;;;4982718;28;46462;-68
2022/09/04 04:38:46;;;;;;;5.70;2.77;;;12.10;65.20;;;;;;4981521;28;46613;-70
2022/09/04 04:48:06;;;;;;;6.07;2.97;;;12.00;65.50;;;;;;4982334;28;46418;-67
2022/09/04 04:50:44;;;;;;;5.47;3.50;;;12.10;65.30;;;;;;4982772;28;46499;-68
2022/09/04 04:53:24;;;;;;;5.80;2.73;;;12.20;64.10;;;;;;4981638;28;46630;-67
2022/09/04 04:56:19;;;;;;;4.63;2.87;;;12.20;65.00;;;;;;4981619;28;47122;-67
2022/09/04 04:58:54;;;;;;;3.70;2.60;;;12.20;64.70;;;;;;4978057;28;46458;-67
2022/09/04 05:01:35;;;;;;;4.07;2.77;;;12.30;64.50;;;;;;4981160;28;46425;-67
2022/09/04 05:04:21;;;;;;;4.30;2.77;;;12.40;63.60;;;;;;4981449;28;46660;-67
2022/09/04 05:06:58;;;;;;;5.57;2.90;;;12.40;64.60;;;;;;4981186;28;47955;-66
2022/09/04 05:09:43;;;;;;;6.13;3.57;;;12.50;64.40;;;;;;4981943;28;46414;-68
2022/09/04 05:12:36;;;;;;;5.30;2.97;;;12.60;63.20;;;;;;4981653;28;46449;-66
2022/09/04 05:15:09;;;;;;;5.03;3.03;;;12.60;64.40;;;;;;4981414;28;46468;-66
2022/09/04 05:17:57;;;;;;;7.80;3.73;;;12.60;64.10;;;;;;4981511;28;46289;-66
2022/09/04 05:20:36;;;;;;;5.53;3.20;;;12.70;64.10;;;;;;4980783;28;46347;-66
2022/09/04 05:23:21;;;;;;;5.53;2.60;;;12.90;62.90;;;;;;4981978;28;46383;-67
2022/09/04 05:25:55;;;;;;;3.63;2.63;;;12.90;63.80;;;;;;4981094;28;46582;-67
2022/09/04 05:29:00;;;;;;;8.23;2.30;;;13.50;62.70;;;;;;4979956;28;46698;-67
2022/09/04 05:31:44;;;;;;;5.63;2.63;;;14.50;63.30;;;;;;4980716;28;46419;-66
2022/09/04 05:34:27;;;;;;;4.33;2.60;;;15.70;61.80;;;;;;4981338;28;46422;-68
2022/09/04 05:37:16;;;;;;;3.70;2.70;;;16.30;61.90;;;;;;4980061;28;46633;-69
2022/09/04 05:40:14;;;;;;;6.07;2.80;;;17.10;60.20;;;;;;4979769;28;48299;-68
2022/09/04 05:43:00;;;;;;;3.80;2.13;;;18.30;58.30;;;;;;4979311;28;46292;-67
2022/09/04 05:46:11;;;;;;;6.73;3.30;;;18.20;58.80;;;;;;4979479;28;46617;-67
2022/09/04 05:48:52;;;;;;;4.00;2.83;;;18.30;58.40;;;;;;4978447;28;46139;-67
2022/09/04 05:51:45;;;;;;;4.03;3.03;;;19.00;57.70;;;;;;4980243;28;46619;-68
2022/09/04 05:54:51;;;;;;;4.57;2.60;;;19.60;54.90;;;;;;4979631;28;46352;-68
2022/09/04 05:57:43;;;;;;;3.60;2.20;;;20.00;55.00;;;;;;4979975;28;46455;-68
2022/09/04 06:00:16;;;;;;;5.30;2.30;;;20.50;53.40;;;;;;4979728;28;45932;-67
2022/09/04 06:03:11;;;;;;;7.50;2.40;;;21.00;49.70;;;;;;4979520;28;46644;-68
2022/09/04 06:05:45;;;;;;;5.10;2.20;;;21.10;48.80;;;;;;4978145;28;46548;-65
2022/09/04 06:08:34;;;;;;;5.93;2.20;;;21.30;45.30;;;;;;4979092;28;46713;-67
2022/09/04 06:11:04;;;;;;;3.37;1.90;;;21.20;45.60;;;;;;4979015;28;46600;-67
2022/09/04 06:13:57;;;;;;;5.90;2.30;;;20.30;46.00;;;;;;4980744;28;46532;-67
2022/09/04 06:17:04;;;;;;;4.53;2.47;;;19.90;47.60;;;;;;4981358;28;45840;-67
2022/09/04 06:19:45;;;;;;;4.53;2.10;;;19.40;49.00;;;;;;4985154;28;46478;-68
2022/09/04 06:22:51;;;;;;;6.03;2.20;;;19.00;49.80;;;;;;4980324;28;46459;-68
2022/09/04 06:25:30;;;;;;;5.43;2.40;;;19.00;50.60;;;;;;4986958;28;46613;-67
2022/09/04 06:28:33;;;;;;;3.97;2.07;;;19.10;49.60;;;;;;4980134;28;46356;-66
2022/09/04 06:31:27;;;;;;;3.63;2.20;;;19.00;49.30;;;;;;4978400;28;46455;-67
2022/09/04 06:34:13;;;;;;;5.27;2.27;;;19.00;48.20;;;;;;4979005;28;46539;-67
2022/09/04 06:37:17;;;;;;;4.43;2.17;;;19.00;49.30;;;;;;4979176;28;46526;-68
2022/09/04 06:40:09;;;;;;;2.90;1.90;;;19.00;49.30;;;;;;4978736;28;46426;-66
2022/09/04 06:43:10;;;;;;;3.13;2.17;;;19.20;48.00;;;;;;4976392;28;46508;-66
2022/09/04 06:45:44;;;;;;;7.87;5.23;;;19.20;49.10;;;;;;4972658;28;46564;-66
2022/09/04 06:48:34;;;;;;;5.60;3.60;;;19.50;48.90;;;;;;4978147;28;46536;-67
2022/09/04 06:51:15;;;;;;;4.20;2.50;;;19.70;48.80;;;;;;4979405;28;46285;-67
2022/09/04 06:53:53;;;;;;;3.80;2.50;;;19.90;47.70;;;;;;4979253;28;46514;-66
2022/09/04 06:56:43;;;;;;;4.30;1.97;;;19.90;48.90;;;;;;4980725;28;46363;-66
2022/09/04 06:59:35;;;;;;;4.13;2.10;;;20.10;49.00;;;;;;4979746;28;46724;-66
2022/09/04 07:02:18;;;;;;;3.03;1.90;;;20.30;49.00;;;;;;4979163;28;46585;-65
2022/09/04 07:05:21;;;;;;;3.30;2.40;;;20.30;48.00;;;;;;4979688;28;46282;-67
2022/09/04 07:08:12;;;;;;;5.50;2.47;;;20.50;48.80;;;;;;4980033;28;46402;-67
2022/09/04 07:10:51;;;;;;;10.53;2.97;;;20.60;48.70;;;;;;4978528;28;46754;-67
2022/09/04 07:13:47;;;;;;;6.80;2.07;;;20.30;48.10;;;;;;4978554;28;46443;-69
2022/09/04 07:16:39;;;;;;;5.33;1.77;;;20.20;49.40;;;;;;4978011;28;45894;-68
2022/09/04 07:19:23;;;;;;;3.50;2.03;;;20.50;50.80;;;;;;4974668;28;46403;-66
2022/09/04 07:22:17;;;;;;;3.17;1.83;;;20.60;49.40;;;;;;4977622;28;46919;-66
2022/09/04 07:25:22;;;;;;;3.47;2.10;;;20.80;47.50;;;;;;4976848;28;46399;-65
2022/09/04 07:28:17;;;;;;;8.77;2.20;;;21.10;48.70;;;;;;4976941;28;46509;-68
2022/09/04 07:30:46;;;;;;;3.70;2.10;;;21.30;48.80;;;;;;4977847;28;46539;-65
2022/09/04 07:33:11;;;;;;;9.20;2.23;;;21.10;47.60;;;;;;4976440;28;46470;-66
2022/09/04 07:36:04;;;;;;;7.27;2.43;;;21.10;48.70;;;;;;4976735;28;46701;-67
2022/09/04 07:38:45;;;;;;;3.77;2.07;;;21.10;48.60;;;;;;4976014;28;46440;-67
2022/09/04 07:41:21;;;;;;;4.20;2.40;;;21.20;48.80;;;;;;4976851;28;46554;-68
2022/09/04 07:44:12;;;;;;;5.23;2.63;;;21.30;48.90;;;;;;4975311;28;46440;-66
2022/09/04 07:46:50;;;;;;;4.30;2.60;;;21.50;48.20;;;;;;4977053;28;46419;-67
2022/09/04 07:49:45;;;;;;;3.10;1.93;;;21.60;47.70;;;;;;4975887;28;46517;-65
2022/09/04 07:52:23;;;;;;;4.10;2.70;;;21.70;46.30;;;;;;4975449;28;46709;-67
2022/09/04 07:55:25;;;;;;;3.67;2.47;;;21.70;47.30;;;;;;4974648;28;46544;-66
2022/09/04 07:57:53;;;;;;;6.40;2.80;;;21.40;47.40;;;;;;4975925;28;46371;-66
2022/09/04 08:00:22;;;;;;;4.93;2.10;;;21.40;47.60;;;;;;4977386;28;46290;-66
2022/09/04 08:03:19;;;;;;;5.33;2.70;;;21.20;47.70;;;;;;4974053;28;46582;-67
2022/09/04 08:05:54;;;;;;;4.87;2.83;;;21.20;47.80;;;;;;4974860;28;46440;-66
2022/09/04 08:09:00;;;;;;;4.73;2.77;;;21.20;48.20;;;;;;4972517;28;46463;-67
2022/09/04 08:11:29;;;;;;;3.67;2.30;;;21.30;48.00;;;;;;4975156;28;46491;-66
2022/09/04 08:14:15;;;;;;;11.23;2.63;;;21.50;47.60;;;;;;4974170;28;46499;-69
2022/09/04 08:16:47;;;;;;;3.30;2.00;;;21.70;47.10;;;;;;4991167;28;48338;-65
2022/09/04 08:19:50;;;;;;;3.70;2.13;;;21.90;46.90;;;;;;4975806;28;46388;-67
2022/09/04 08:22:31;;;;;;;5.23;2.20;;;21.00;44.00;;;;;;4976030;28;46404;-66
2022/09/04 08:25:19;;;;;;;5.33;2.43;;;22.00;45.80;;;;;;4980616;28;46427;-66
2022/09/04 08:28:19;;;;;;;5.30;2.30;;;22.00;45.60;;;;;;4978567;28;46299;-68
2022/09/04 08:31:11;;;;;;;4.03;2.40;;;22.10;45.90;;;;;;4979436;28;46439;-67
2022/09/04 08:33:58;;;;;;;8.87;2.50;;;22.00;45.50;;;;;;4977103;28;46730;-68
2022/09/04 08:36:48;;;;;;;3.20;2.00;;;21.90;45.10;;;;;;4980630;28;46467;-68
2022/09/04 08:39:42;;;;;;;6.70;2.63;;;21.90;45.40;;;;;;4978414;28;46877;-67
2022/09/04 08:42:40;;;;;;;5.97;2.07;;;21.90;45.00;;;;;;4979932;28;45748;-66
2022/09/04 08:45:19;;;;;;;6.40;2.30;;;22.10;44.90;;;;;;4980256;28;45806;-67
2022/09/04 08:47:56;;;;;;;3.87;2.30;;;22.20;44.60;;;;;;4977469;28;45821;-67
2022/09/04 08:50:50;;;;;;;5.00;2.00;;;22.20;44.10;;;;;;4979019;28;47060;-68
2022/09/04 08:53:41;;;;;;;5.00;2.40;;;22.40;44.10;;;;;;4978099;28;46487;-68
2022/09/04 08:56:27;;;;;;;4.37;2.03;;;22.40;43.40;;;;;;4980067;28;46771;-67
2022/09/04 08:59:14;;;;;;;3.67;2.57;;;22.60;43.00;;;;;;4978545;28;46493;-68
2022/09/04 09:01:47;;;;;;;6.03;2.20;;;22.60;42.30;;;;;;4977307;28;46806;-67
2022/09/04 09:04:21;;;;;;;3.60;2.23;;;22.60;40.90;;;;;;4978061;28;46456;-67
2022/09/04 09:07:00;;;;;;;8.17;2.07;;;22.70;42.00;;;;;;4980609;28;46494;-68
2022/09/04 09:09:32;;;;;;;6.80;2.30;;;22.90;41.60;;;;;;4980511;28;46474;-69
2022/09/04 09:12:22;;;;;;;3.20;2.17;;;23.10;41.20;;;;;;4979241;28;46767;-68
2022/09/04 09:15:24;;;;;;;3.87;2.33;;;23.30;40.50;;;;;;4978994;28;46513;-69
2022/09/04 09:18:01;;;;;;;3.80;2.13;;;23.40;39.90;;;;;;4978267;28;46439;-69
2022/09/04 09:20:45;;;;;;;4.70;2.60;;;23.20;40.20;;;;;;4977777;28;46459;-67
2022/09/04 09:23:28;;;;;;;3.13;2.07;;;23.50;38.50;;;;;;4991332;28;47979;-70
2022/09/04 09:26:05;;;;;;;3.90;2.20;;;23.70;39.30;;;;;;4979277;28;46458;-69
2022/09/04 09:28:54;;;;;;;3.40;2.20;;;23.80;39.00;;;;;;4979559;28;46443;-66
2022/09/04 09:31:42;;;;;;;3.80;2.50;;;23.80;37.80;;;;;;4979333;28;46379;-68
2022/09/04 09:34:38;;;;;;;5.07;2.27;;;23.90;37.30;;;;;;4976832;28;46458;-68
2022/09/04 09:37:40;;;;;;;4.20;2.47;;;24.10;37.90;;;;;;4977895;28;46527;-69
2022/09/04 09:40:21;;;;;;;3.80;2.50;;;24.20;37.90;;;;;;4977818;28;47613;-70
2022/09/04 09:42:48;;;;;;;3.67;2.40;;;23.90;36.60;;;;;;4977766;28;46402;-68
2022/09/04 09:45:38;;;;;;;9.70;3.30;;;23.90;37.70;;;;;;4978726;28;46428;-70
2022/09/04 09:48:12;;;;;;;4.17;2.03;;;24.00;37.20;;;;;;4975995;28;46243;-71
2022/09/04 09:51:11;;;;;;;4.47;1.67;;;24.00;37.10;;;;;;4977687;28;46496;-68
2022/09/04 09:54:15;;;;;;;3.10;1.80;;;24.10;35.00;;;;;;4978959;28;46652;-68
2022/09/04 09:57:14;;;;;;;4.00;1.97;;;24.20;35.50;;;;;;4978425;28;47408;-69
2022/09/04 09:59:48;;;;;;;3.30;1.80;;;24.30;35.60;;;;;;4977892;28;46398;-69
2022/09/04 10:02:17;;;;;;;3.60;1.50;;;24.80;33.50;;;;;;4978925;28;46301;-68
2022/09/04 10:04:50;;;;;;;2.50;1.63;;;24.80;34.60;;;;;;4977284;28;46447;-69
2022/09/04 10:07:46;;;;;;;3.70;1.67;;;25.00;33.30;;;;;;4975529;28;46356;-69
2022/09/04 10:10:39;;;;;;;2.97;1.53;;;25.00;32.70;;;;;;4977737;28;46468;-68
2022/09/04 10:13:23;;;;;;;3.13;1.63;;;24.90;31.60;;;;;;4977506;28;46429;-68
2022/09/04 10:16:07;;;;;;;3.23;1.60;;;24.80;32.10;;;;;;4976956;28;46523;-68
2022/09/04 10:19:06;;;;;;;3.30;1.70;;;24.60;32.60;;;;;;4974481;28;46425;-67
2022/09/04 10:22:07;;;;;;;3.60;1.70;;;24.50;32.70;;;;;;4977444;28;45836;-68
2022/09/04 10:25:01;;;;;;;3.00;1.60;;;24.80;31.60;;;;;;4976640;28;46380;-66
2022/09/04 10:27:45;;;;;;;14.03;2.20;;;25.20;31.70;;;;;;4976410;28;47124;-68
2022/09/04 10:30:20;;;;;;;3.50;1.70;;;25.20;31.40;;;;;;4978665;28;46495;-67
2022/09/04 10:33:09;;;;;;;3.00;1.73;;;25.60;29.70;;;;;;4975499;28;46858;-68
2022/09/04 10:36:16;;;;;;;3.93;1.83;;;25.80;29.90;;;;;;4975205;28;46388;-69
2022/09/04 10:41:44;;;;;;;3.43;1.63;;;26.20;29.00;;;;;;4978695;28;46352;-68
2022/09/04 10:45:00;;;;;;;7.63;2.10;;;25.90;26.70;;;;;;4977349;28;46318;-68
2022/09/04 10:47:35;;;;;;;2.80;1.60;;;25.50;27.50;;;;;;4970839;28;45944;-68
2022/09/04 10:50:11;;;;;;;4.30;2.03;;;25.50;28.10;;;;;;4977074;28;46155;-68
2022/09/04 10:52:59;;;;;;;4.63;2.00;;;25.60;27.30;;;;;;4977212;28;47303;-67
2022/09/04 10:56:04;;;;;;;3.77;2.00;;;25.60;27.90;;;;;;4975611;28;46690;-69
2022/09/04 10:58:38;;;;;;;5.37;1.60;;;25.70;27.10;;;;;;4976888;28;46550;-69
2022/09/04 11:01:28;;;;;;;6.93;1.40;;;25.30;27.50;;;;;;4976354;28;46381;-68
2022/09/04 11:04:35;;;;;;;2.50;1.37;;;24.90;27.10;;;;;;4976819;28;46378;-71
2022/09/04 11:07:39;;;;;;;2.50;1.60;;;24.60;27.90;;;;;;4972624;28;46469;-69
2022/09/04 11:10:17;;;;;;;3.00;1.60;;;24.50;28.60;;;;;;4977697;28;46631;-70
2022/09/04 11:13:08;;;;;;;4.50;2.00;;;24.80;27.50;;;;;;4977247;28;45845;-69
2022/09/04 11:15:46;;;;;;;2.70;1.47;;;24.90;28.30;;;;;;4976051;28;47351;-70
2022/09/04 11:18:57;;;;;;;2.80;1.47;;;24.80;28.00;;;;;;4976147;28;46466;-70
2022/09/04 11:21:50;;;;;;;3.90;1.90;;;24.30;27.80;;;;;;4975309;28;46430;-69
2022/09/04 11:24:37;;;;;;;4.60;1.80;;;23.90;27.70;;;;;;4976371;28;46553;-70
2022/09/04 11:27:06;;;;;;;2.57;1.30;;;23.90;28.90;;;;;;4976973;28;46410;-71
2022/09/04 11:29:54;;;;;;;3.30;1.60;;;23.80;28.90;;;;;;4977391;28;46410;-70
2022/09/04 11:32:30;;;;;;;3.70;2.00;;;24.00;28.10;;;;;;4974955;28;47273;-70
2022/09/04 11:35:47;;;;;;;2.77;1.37;;;24.00;28.70;;;;;;4976243;28;46466;-71
2022/09/04 11:38:27;;;;;;;2.67;1.70;;;24.30;28.60;;;;;;4953747;28;46968;-68
2022/09/04 11:41:26;;;;;;;4.37;1.50;;;24.80;27.70;;;;;;4954584;28;46726;-69
2022/09/04 11:44:26;;;;;;;3.93;1.60;;;24.60;24.80;;;;;;4969429;28;46420;-68
2022/09/04 11:47:14;;;;;;;4.93;1.73;;;24.70;25.80;;;;;;4975606;28;46458;-69
2022/09/04 11:49:45;;;;;;;3.87;1.60;;;24.60;25.90;;;;;;4972205;28;46550;-69
2022/09/04 11:52:34;;;;;;;3.47;1.70;;;24.40;25.40;;;;;;4975870;28;46407;-69
2022/09/04 11:55:08;;;;;;;3.60;1.93;;;24.40;26.20;;;;;;4976948;28;46465;-68
2022/09/04 11:58:01;;;;;;;3.27;1.60;;;24.40;26.60;;;;;;4976912;28;46634;-67
2022/09/04 12:00:58;;;;;;;3.63;1.70;;;24.30;26.60;;;;;;4979747;28;47313;-67
2022/09/04 12:03:50;;;;;;;2.90;1.47;;;24.80;25.30;;;;;;4979211;28;46590;-68
2022/09/04 12:06:35;;;;;;;3.93;1.67;;;24.90;25.90;;;;;;4980516;28;46486;-67
2022/09/04 12:09:09;;;;;;;2.97;1.50;;;24.90;25.90;;;;;;4979375;28;46720;-68
2022/09/04 12:11:59;;;;;;;2.50;1.40;;;24.70;25.90;;;;;;4978655;28;46430;-69
2022/09/04 12:14:46;;;;;;;3.70;1.70;;;24.20;24.50;;;;;;4978462;28;46559;-68
2022/09/04 12:17:34;;;;;;;2.90;1.70;;;24.30;26.10;;;;;;4979141;28;46388;-67
2022/09/04 12:20:37;;;;;;;5.30;1.87;;;24.70;26.10;;;;;;4978674;28;46561;-69
2022/09/04 12:23:36;;;;;;;2.37;1.40;;;24.50;24.80;;;;;;4980555;28;46801;-69
2022/09/04 12:26:33;;;;;;;6.53;1.87;;;24.40;25.60;;;;;;4979993;28;46694;-69
2022/09/04 12:29:32;;;;;;;2.93;1.43;;;24.40;25.50;;;;;;4979290;28;46687;-68
2022/09/04 12:32:13;;;;;;;3.00;1.70;;;24.80;25.80;;;;;;4979306;28;46479;-68
2022/09/04 12:34:42;;;;;;;4.33;1.80;;;25.10;25.10;;;;;;4977946;28;48171;-71
2022/09/04 12:37:42;;;;;;;5.40;1.70;;;25.80;26.20;;;;;;4978115;28;46425;-71
2022/09/04 12:40:44;;;;;;;3.30;1.50;;;25.50;25.20;;;;;;4977355;28;46506;-68
2022/09/04 12:43:39;;;;;;;2.60;1.40;;;25.60;25.00;;;;;;4979261;28;46453;-67
2022/09/04 12:46:18;;;;;;;3.77;1.70;;;25.60;25.60;;;;;;4977722;28;46335;-70
2022/09/04 12:49:27;;;;;;;2.50;1.27;;;25.50;25.20;;;;;;4978728;28;45850;-68
2022/09/04 12:52:27;;;;;;;3.63;1.40;;;25.30;25.20;;;;;;4978527;28;46693;-69
2022/09/04 12:55:21;;;;;;;3.97;1.77;;;25.30;24.50;;;;;;4976967;28;46490;-69
2022/09/04 12:58:10;;;;;;;3.87;1.60;;;25.50;25.10;;;;;;4977947;28;47178;-68
2022/09/04 13:00:55;;;;;;;3.20;1.57;;;25.40;25.00;;;;;;4978498;28;46745;-66
2022/09/04 13:03:38;;;;;;;2.80;1.50;;;25.20;24.60;;;;;;4975677;28;46461;-67
2022/09/04 13:06:38;;;;;;;24.87;2.40;;;25.00;25.10;;;;;;4977885;28;45888;-68
2022/09/04 13:09:25;;;;;;;14.43;2.13;;;25.10;25.00;;;;;;4982170;28;47090;-70
2022/09/04 13:12:03;;;;;;;4.47;1.77;;;25.40;24.50;;;;;;4980079;28;46403;-68
2022/09/04 13:14:59;;;;;;;4.53;1.90;;;25.60;23.00;;;;;;4978914;28;46812;-69
2022/09/04 13:17:51;;;;;;;2.50;1.37;;;25.80;23.80;;;;;;4977625;28;46506;-68
2022/09/04 13:20:21;;;;;;;3.57;1.70;;;25.80;23.00;;;;;;4978853;28;47214;-70
2022/09/04 13:23:02;;;;;;;3.50;1.73;;;25.90;22.00;;;;;;4977561;28;47091;-68
2022/09/04 13:26:03;;;;;;;3.00;1.37;;;25.90;23.00;;;;;;4974982;28;46499;-69
2022/09/04 13:28:40;;;;;;;5.20;1.60;;;26.00;23.00;;;;;;4978994;28;46843;-67
2022/09/04 13:31:26;;;;;;;2.87;1.60;;;25.80;23.50;;;;;;4978089;28;46215;-69
2022/09/04 13:34:01;;;;;;;3.50;1.73;;;25.70;22.70;;;;;;4988815;28;46414;-68
2022/09/04 13:36:34;;;;;;;3.97;1.80;;;25.60;23.30;;;;;;4976773;28;46445;-68
2022/09/04 13:39:27;;;;;;;3.13;1.70;;;25.50;23.60;;;;;;4977673;28;46425;-68
2022/09/04 13:42:27;;;;;;;3.80;1.60;;;25.50;23.40;;;;;;4976238;28;46617;-68
2022/09/04 13:45:14;;;;;;;2.80;1.50;;;25.50;22.70;;;;;;4978746;28;46405;-69
2022/09/04 13:47:52;;;;;;;2.83;1.23;;;25.50;23.70;;;;;;4976891;28;46767;-68
2022/09/04 13:50:28;;;;;;;4.77;1.60;;;25.20;23.20;;;;;;4975954;28;47122;-67
2022/09/04 13:53:14;;;;;;;3.60;1.80;;;25.30;22.50;;;;;;4976754;28;46783;-67
2022/09/04 13:55:46;;;;;;;4.50;1.80;;;25.30;23.10;;;;;;4977612;28;46320;-68
2022/09/04 13:58:28;;;;;;;3.33;1.70;;;25.30;22.90;;;;;;4978952;28;46672;-70
2022/09/04 14:00:59;;;;;;;3.27;1.63;;;25.30;22.80;;;;;;4977328;28;46384;-68
2022/09/04 14:03:43;;;;;;;6.70;1.90;;;25.50;21.90;;;;;;4976896;28;48210;-68
2022/09/04 14:06:13;;;;;;;7.00;1.80;;;25.40;22.30;;;;;;4977106;28;46455;-68
2022/09/04 14:08:42;;;;;;;3.93;1.60;;;25.40;21.90;;;;;;4975463;28;46502;-68
2022/09/04 14:11:19;;;;;;;2.50;1.20;;;25.40;21.50;;;;;;4978928;28;46594;-68
2022/09/04 14:13:57;;;;;;;2.83;1.50;;;25.30;20.00;;;;;;4976993;28;46413;-68
2022/09/04 14:16:23;;;;;;;3.53;1.60;;;25.20;20.60;;;;;;4977077;28;46439;-69
2022/09/04 14:19:36;;;;;;;4.30;1.90;;;25.20;20.80;;;;;;4975895;28;46506;-69
2022/09/04 14:22:31;;;;;;;2.60;1.30;;;25.20;21.00;;;;;;4977271;28;46827;-68
2022/09/04 14:25:38;;;;;;;3.07;1.70;;;25.20;20.10;;;;;;4977071;28;47305;-68
2022/09/04 14:28:12;;;;;;;3.40;1.30;;;25.30;20.90;;;;;;4977192;28;46605;-70
2022/09/04 14:30:59;;;;;;;2.90;1.60;;;25.40;21.20;;;;;;4977229;28;46960;-69
2022/09/04 14:33:48;;;;;;;3.43;2.03;;;25.30;20.00;;;;;;4978881;28;46467;-68